createdAt,value
2022-10-20T00:02:19.643Z,16.20
2022-10-20T00:04:54.137Z,17.42
2022-10-20T00:07:22.309Z,20.13
2022-10-20T00:09:49.744Z,20.40
2022-10-20T00:12:23.160Z,21.30
2022-10-20T00:14:50.560Z,20.90
2022-10-20T00:17:17.936Z,20.23
2022-10-20T00:19:55.160Z,21.90
2022-10-20T00:22:22.535Z,21.77
2022-10-20T00:24:51.527Z,19.60
2022-10-20T00:27:25.236Z,20.98
2022-10-20T00:29:52.686Z,21.00
2022-10-20T00:32:20.070Z,22.23
2022-10-20T00:34:54.126Z,21.38
2022-10-20T00:37:23.990Z,21.15
2022-10-20T00:39:53.910Z,21.27
2022-10-20T00:42:27.913Z,20.60
2022-10-20T00:44:58.339Z,19.80
2022-10-20T00:47:50.912Z,21.63
2022-10-20T00:50:31.231Z,20.15
2022-10-20T00:53:07.907Z,19.63
2022-10-20T00:55:40.002Z,18.73
2022-10-20T00:58:07.645Z,19.60
2022-10-20T01:00:43.918Z,21.30
2022-10-20T01:03:18.149Z,21.33
2022-10-20T01:05:51.936Z,20.38
2022-10-20T01:08:19.400Z,20.83
2022-10-20T01:11:21.890Z,19.95
2022-10-20T01:14:19.202Z,20.08
2022-10-20T01:17:30.636Z,19.08
2022-10-20T01:20:23.776Z,20.48
2022-10-20T01:23:18.701Z,21.33
2022-10-20T01:26:10.372Z,21.25
2022-10-20T01:29:00.020Z,20.33
2022-10-20T01:31:48.658Z,21.95
2022-10-20T01:34:29.192Z,22.35
2022-10-20T01:37:28.409Z,22.70
2022-10-20T01:40:22.665Z,20.98
2022-10-20T01:42:52.941Z,21.75
2022-10-20T01:45:32.476Z,22.30
2022-10-20T01:48:12.268Z,22.83
2022-10-20T01:50:53.029Z,21.10
2022-10-20T01:53:20.795Z,21.42
2022-10-20T01:55:52.822Z,23.52
2022-10-20T01:58:50.452Z,23.95
2022-10-20T02:01:45.439Z,23.40
2022-10-20T02:04:22.139Z,23.60
2022-10-20T02:07:04.974Z,25.38
2022-10-20T02:09:56.090Z,24.50
2022-10-20T02:12:31.342Z,25.57
2022-10-20T02:15:07.034Z,26.33
2022-10-20T02:17:37.386Z,25.45
2022-10-20T02:20:14.077Z,23.65
2022-10-20T02:22:41.799Z,25.65
2022-10-20T02:25:14.817Z,27.13
2022-10-20T02:27:54.091Z,25.65
2022-10-20T02:30:22.363Z,26.77
2022-10-20T02:32:52.978Z,26.08
2022-10-20T02:35:33.200Z,26.77
2022-10-20T02:38:01.268Z,24.35
2022-10-20T02:40:31.451Z,25.58
2022-10-20T02:43:05.410Z,25.08
2022-10-20T02:45:35.284Z,25.17
2022-10-20T02:48:16.417Z,24.77
2022-10-20T02:50:52.513Z,24.00
2022-10-20T02:53:29.403Z,26.20
2022-10-20T02:55:56.776Z,25.50
2022-10-20T02:58:24.318Z,24.83
2022-10-20T03:01:00.280Z,24.55
2022-10-20T03:03:27.652Z,26.60
2022-10-20T03:06:12.752Z,25.30
2022-10-20T03:08:40.313Z,25.05
2022-10-20T03:11:10.254Z,24.55
2022-10-20T03:13:46.010Z,24.35
2022-10-20T03:16:15.721Z,24.20
2022-10-20T03:18:43.120Z,25.52
2022-10-20T03:21:21.477Z,25.02
2022-10-20T03:23:56.880Z,24.65
2022-10-20T03:26:24.209Z,25.70
2022-10-20T03:28:57.795Z,26.45
2022-10-20T03:31:25.439Z,25.88
2022-10-20T03:33:53.248Z,25.90
2022-10-20T03:36:27.802Z,25.55
2022-10-20T03:38:55.203Z,24.15
2022-10-20T03:41:22.660Z,25.20
2022-10-20T03:43:58.871Z,24.85
2022-10-20T03:46:36.833Z,25.65
2022-10-20T03:49:20.321Z,25.58
2022-10-20T03:51:47.815Z,23.95
2022-10-20T03:54:15.157Z,24.83
2022-10-20T03:56:48.881Z,25.00
2022-10-20T03:59:16.236Z,23.80
2022-10-20T04:01:45.852Z,24.17
2022-10-20T04:04:24.963Z,24.30
2022-10-20T04:06:52.352Z,24.13
2022-10-20T04:09:22.121Z,23.48
2022-10-20T04:11:56.059Z,24.63
2022-10-20T04:14:23.404Z,22.13
2022-10-20T04:16:52.266Z,24.23
2022-10-20T04:19:26.068Z,23.45
2022-10-20T04:21:53.416Z,22.83
2022-10-20T04:24:22.443Z,22.65
2022-10-20T04:26:56.086Z,22.70
2022-10-20T04:29:24.191Z,23.02
2022-10-20T04:31:51.682Z,23.83
2022-10-20T04:34:25.122Z,21.92
2022-10-20T04:36:52.492Z,22.35
2022-10-20T04:39:20.145Z,22.15
2022-10-20T04:41:59.289Z,22.30
2022-10-20T04:44:26.784Z,23.20
2022-10-20T04:47:08.856Z,23.23
2022-10-20T04:49:45.265Z,22.85
2022-10-20T04:52:19.312Z,24.30
2022-10-20T04:54:48.766Z,23.40
2022-10-20T04:57:16.321Z,22.95
2022-10-20T04:59:50.218Z,23.38
2022-10-20T05:02:18.063Z,23.33
2022-10-20T05:04:46.444Z,24.38
2022-10-20T05:07:20.228Z,23.83
2022-10-20T05:09:48.958Z,23.98
2022-10-20T05:12:16.385Z,23.98
2022-10-20T05:14:53.901Z,24.27
2022-10-20T05:17:21.374Z,23.10
2022-10-20T05:19:48.768Z,24.60
2022-10-20T05:22:22.956Z,23.42
2022-10-20T05:24:50.417Z,23.98
2022-10-20T05:27:18.990Z,23.45
2022-10-20T05:29:54.634Z,22.88
2022-10-20T05:32:25.482Z,21.42
2022-10-20T05:34:56.029Z,22.30
2022-10-20T05:37:30.652Z,22.58
2022-10-20T05:39:59.979Z,21.38
2022-10-20T05:42:27.507Z,22.27
2022-10-20T05:45:02.774Z,21.08
2022-10-20T05:47:36.758Z,23.17
2022-10-20T05:50:23.681Z,21.25
2022-10-20T05:52:58.510Z,22.15
2022-10-20T05:55:35.468Z,22.38
2022-10-20T05:58:02.933Z,21.98
2022-10-20T06:00:31.551Z,21.45
2022-10-20T06:03:09.305Z,22.27
2022-10-20T06:05:36.783Z,22.38
2022-10-20T06:08:04.434Z,24.25
2022-10-20T06:10:40.309Z,23.55
2022-10-20T06:13:08.377Z,24.17
2022-10-20T06:15:35.846Z,22.90
2022-10-20T06:18:13.416Z,22.92
2022-10-20T06:20:41.490Z,23.20
2022-10-20T06:23:11.137Z,24.70
2022-10-20T06:25:45.114Z,23.98
2022-10-20T06:28:12.605Z,24.30
2022-10-20T06:30:40.619Z,24.80
2022-10-20T06:33:19.106Z,25.13
2022-10-20T06:35:46.562Z,25.38
2022-10-20T06:38:37.164Z,23.55
2022-10-20T06:41:16.831Z,24.48
2022-10-20T06:43:52.072Z,23.25
2022-10-20T06:46:19.720Z,22.50
2022-10-20T06:49:02.088Z,22.75
2022-10-20T06:51:29.642Z,22.85
2022-10-20T06:54:00.194Z,24.33
2022-10-20T06:56:38.358Z,21.83
2022-10-20T06:59:06.050Z,23.20
2022-10-20T07:01:37.630Z,21.35
2022-10-20T07:04:23.114Z,20.25
2022-10-20T07:06:53.496Z,19.77
2022-10-20T07:09:21.244Z,19.40
2022-10-20T07:12:02.178Z,17.50
2022-10-20T07:14:32.417Z,17.52
2022-10-20T07:17:00.096Z,19.38
2022-10-20T07:19:34.506Z,17.25
2022-10-20T07:22:03.286Z,16.60
2022-10-20T07:24:30.913Z,16.30
2022-10-20T07:27:08.402Z,15.40
2022-10-20T07:29:37.341Z,15.10
2022-10-20T07:32:14.609Z,16.00
2022-10-20T07:34:42.137Z,13.70
2022-10-20T07:37:09.669Z,13.68
2022-10-20T07:39:43.549Z,13.80
2022-10-20T07:42:11.131Z,13.45
2022-10-20T07:44:38.812Z,14.48
2022-10-20T07:47:13.158Z,13.32
2022-10-20T07:49:47.283Z,15.05
2022-10-20T07:52:23.173Z,13.27
2022-10-20T07:54:52.813Z,13.23
2022-10-20T07:57:30.311Z,12.57
2022-10-20T07:59:59.591Z,11.43
2022-10-20T08:02:27.024Z,12.07
2022-10-20T08:05:01.153Z,11.35
2022-10-20T08:07:28.610Z,10.40
2022-10-20T08:09:56.219Z,9.98
2022-10-20T08:12:31.232Z,10.98
2022-10-20T08:15:01.844Z,10.18
2022-10-20T08:17:29.394Z,10.63
2022-10-20T08:20:20.360Z,10.55
2022-10-20T08:22:50.136Z,10.77
2022-10-20T08:25:24.212Z,10.38
2022-10-20T08:27:51.785Z,10.73
2022-10-20T08:30:23.944Z,10.93
2022-10-20T08:33:00.764Z,11.55
2022-10-20T08:35:28.612Z,10.10
2022-10-20T08:37:58.642Z,11.15
2022-10-20T08:40:37.611Z,10.00
2022-10-20T08:43:05.155Z,8.52
2022-10-20T08:45:38.228Z,9.52
2022-10-20T08:48:14.644Z,8.52
2022-10-20T08:50:49.057Z,9.10
2022-10-20T08:53:23.520Z,8.35
2022-10-20T08:55:51.290Z,6.80
2022-10-20T08:58:30.712Z,7.05
2022-10-20T09:00:59.801Z,7.47
2022-10-20T09:03:39.630Z,7.25
2022-10-20T09:06:15.909Z,7.53
2022-10-20T09:08:50.608Z,6.68
2022-10-20T09:11:34.759Z,6.22
2022-10-20T09:14:10.042Z,4.82
2022-10-20T09:16:55.330Z,5.03
2022-10-20T09:19:33.572Z,4.13
2022-10-20T09:22:07.020Z,3.90
2022-10-20T09:24:42.756Z,3.90
2022-10-20T09:27:35.873Z,3.67
2022-10-20T09:30:36.602Z,3.53
2022-10-20T09:33:29.362Z,3.72
2022-10-20T09:36:09.593Z,3.85
2022-10-20T09:38:42.303Z,3.80
2022-10-20T09:41:28.066Z,3.58
2022-10-20T09:44:13.798Z,2.95
2022-10-20T09:46:55.934Z,3.33
2022-10-20T09:49:43.951Z,3.90
2022-10-20T09:52:26.876Z,3.42
2022-10-20T09:55:03.347Z,3.55
2022-10-20T09:57:38.801Z,3.33
2022-10-20T10:00:25.248Z,3.08
2022-10-20T10:03:27.933Z,3.35
2022-10-20T10:05:59.745Z,3.50
2022-10-20T10:08:47.932Z,3.60
2022-10-20T10:11:18.911Z,3.35
2022-10-20T10:14:04.720Z,3.50
2022-10-20T10:16:45.896Z,2.95
2022-10-20T10:19:26.698Z,3.80
2022-10-20T10:21:55.781Z,2.97
2022-10-20T10:24:47.726Z,7.55
2022-10-20T10:27:42.322Z,4.22
2022-10-20T10:30:56.616Z,4.15
2022-10-20T10:33:29.650Z,4.50
2022-10-20T10:36:09.144Z,4.30
2022-10-20T10:38:41.627Z,4.70
2022-10-20T10:41:34.489Z,4.22
2022-10-20T10:44:19.534Z,3.88
2022-10-20T10:47:23.725Z,4.10
2022-10-20T10:50:39.431Z,4.38
2022-10-20T10:53:25.658Z,4.97
2022-10-20T10:56:15.107Z,4.97
2022-10-20T10:59:23.227Z,5.60
2022-10-20T11:02:02.573Z,5.32
2022-10-20T11:04:47.277Z,5.13
2022-10-20T11:07:36.580Z,5.40
2022-10-20T11:10:23.253Z,5.43
2022-10-20T11:12:56.929Z,6.28
2022-10-20T11:16:05.334Z,7.22
2022-10-20T11:19:23.423Z,7.63
2022-10-20T11:22:07.638Z,7.65
2022-10-20T11:24:42.694Z,7.35
2022-10-20T11:27:19.239Z,6.47
2022-10-20T11:29:51.385Z,6.70
2022-10-20T11:32:46.403Z,7.15
2022-10-20T11:35:31.930Z,7.55
2022-10-20T11:38:37.808Z,7.90
2022-10-20T11:41:10.872Z,7.57
2022-10-20T11:44:07.854Z,8.57
2022-10-20T11:47:10.108Z,8.40
2022-10-20T11:49:51.000Z,8.57
2022-10-20T11:52:43.636Z,6.95
2022-10-20T11:55:45.042Z,7.82
2022-10-20T11:58:31.335Z,7.30
2022-10-20T12:01:41.082Z,7.40
2022-10-20T12:04:08.623Z,7.45
2022-10-20T12:06:58.038Z,7.50
2022-10-20T12:09:38.429Z,8.07
2022-10-20T12:12:16.836Z,6.95
2022-10-20T12:14:56.784Z,6.40
2022-10-20T12:17:33.820Z,6.10
2022-10-20T12:20:47.761Z,5.60
2022-10-20T12:23:51.079Z,5.85
2022-10-20T12:26:33.062Z,6.45
2022-10-20T12:29:10.341Z,6.50
2022-10-20T12:32:15.161Z,6.57
2022-10-20T12:34:49.046Z,7.20
2022-10-20T12:37:43.440Z,6.80
2022-10-20T12:41:04.084Z,7.00
2022-10-20T12:43:53.164Z,7.25
2022-10-20T12:46:35.182Z,6.70
2022-10-20T12:49:14.089Z,6.90
2022-10-20T12:52:03.084Z,6.40
2022-10-20T12:54:43.736Z,6.90
2022-10-20T12:57:51.103Z,6.00
2022-10-20T13:00:26.590Z,6.57
2022-10-20T13:03:05.170Z,6.57
2022-10-20T13:05:49.096Z,5.75
2022-10-20T13:08:27.066Z,5.07
2022-10-20T13:11:21.289Z,5.60
2022-10-20T13:14:05.678Z,5.13
2022-10-20T13:16:34.165Z,5.18
2022-10-20T13:19:12.622Z,4.68
2022-10-20T13:21:40.384Z,5.20
2022-10-20T13:24:42.708Z,4.88
2022-10-20T13:27:15.976Z,4.28
2022-10-20T13:29:53.639Z,4.55
2022-10-20T13:32:47.779Z,4.50
2022-10-20T13:36:08.729Z,4.30
2022-10-20T13:38:47.813Z,4.53
2022-10-20T13:41:38.708Z,4.18
2022-10-20T13:44:36.940Z,4.68
2022-10-20T13:47:37.015Z,5.80
2022-10-20T13:50:33.812Z,5.88
2022-10-20T13:53:18.566Z,6.22
2022-10-20T13:56:07.131Z,6.25
2022-10-20T13:58:41.561Z,7.20
2022-10-20T14:01:23.322Z,6.78
2022-10-20T14:03:59.986Z,7.22
2022-10-20T14:06:42.520Z,6.15
2022-10-20T14:09:22.983Z,6.85
2022-10-20T14:12:15.600Z,6.45
2022-10-20T14:14:57.008Z,7.30
2022-10-20T14:17:27.159Z,7.10
2022-10-20T14:20:24.425Z,7.93
2022-10-20T14:22:54.155Z,8.27
2022-10-20T14:25:23.331Z,7.97
2022-10-20T14:28:01.057Z,8.85
2022-10-20T14:30:31.767Z,8.52
2022-10-20T14:32:59.479Z,7.78
2022-10-20T14:35:45.087Z,7.85
2022-10-20T14:38:24.061Z,8.48
2022-10-20T14:41:04.061Z,8.95
2022-10-20T14:43:42.218Z,7.63
2022-10-20T14:46:29.956Z,8.15
2022-10-20T14:49:18.278Z,8.60
2022-10-20T14:52:06.204Z,7.78
2022-10-20T14:54:39.224Z,8.18
2022-10-20T14:57:19.260Z,7.65
2022-10-20T15:00:03.934Z,7.03
2022-10-20T15:02:41.741Z,7.70
2022-10-20T15:05:30.473Z,7.72
2022-10-20T15:08:12.772Z,7.97
2022-10-20T15:10:40.317Z,8.35
2022-10-20T15:13:33.775Z,7.82
2022-10-20T15:16:06.055Z,8.32
2022-10-20T15:18:41.910Z,7.80
2022-10-20T15:21:11.957Z,8.57
2022-10-20T15:23:39.649Z,8.30
2022-10-20T15:26:22.872Z,7.13
2022-10-20T15:28:51.198Z,7.97
2022-10-20T15:31:31.215Z,8.75
2022-10-20T15:33:59.164Z,11.25
2022-10-20T15:36:43.366Z,9.98
2022-10-20T15:39:12.339Z,9.30
2022-10-20T15:41:40.602Z,9.95
2022-10-20T15:44:24.443Z,8.45
2022-10-20T15:46:57.701Z,8.43
2022-10-20T15:49:39.457Z,8.43
2022-10-20T15:52:09.422Z,9.18
2022-10-20T15:54:37.076Z,8.18
2022-10-20T15:57:23.651Z,8.40
2022-10-20T15:59:51.617Z,8.18
2022-10-20T16:02:19.264Z,8.43
2022-10-20T16:04:53.666Z,7.82
2022-10-20T16:07:21.197Z,7.22
2022-10-20T16:09:51.664Z,6.38
2022-10-20T16:12:26.596Z,7.25
2022-10-20T16:14:54.701Z,7.28
2022-10-20T16:17:22.540Z,7.05
2022-10-20T16:19:56.567Z,6.75
2022-10-20T16:22:24.543Z,6.97
2022-10-20T16:24:54.722Z,6.80
2022-10-20T16:27:29.601Z,6.97
2022-10-20T16:30:00.608Z,7.47
2022-10-20T16:32:32.909Z,7.50
2022-10-20T16:35:19.165Z,7.60
2022-10-20T16:37:46.759Z,7.97
2022-10-20T16:40:16.572Z,7.75
2022-10-20T16:42:50.537Z,7.78
2022-10-20T16:45:20.409Z,8.57
2022-10-20T16:48:01.819Z,8.00
2022-10-20T16:50:40.022Z,8.48
2022-10-20T16:53:15.362Z,7.95
2022-10-20T16:55:55.397Z,7.57
2022-10-20T16:58:32.454Z,7.38
2022-10-20T17:01:09.804Z,7.38
2022-10-20T17:03:47.560Z,7.13
2022-10-20T17:06:17.224Z,8.20
2022-10-20T17:08:45.088Z,25.65
2022-10-20T17:11:24.501Z,44.63
2022-10-20T17:13:52.276Z,9.68
2022-10-20T17:16:32.672Z,10.32
2022-10-20T17:19:02.486Z,9.85
2022-10-20T17:21:31.274Z,8.02
2022-10-20T17:24:08.557Z,7.65
2022-10-20T17:26:36.230Z,7.95
2022-10-20T17:29:17.098Z,8.30
2022-10-20T17:31:44.571Z,7.75
2022-10-20T17:34:12.126Z,8.05
2022-10-20T17:36:47.157Z,8.25
2022-10-20T17:39:17.273Z,8.43
2022-10-20T17:41:54.231Z,7.85
2022-10-20T17:44:24.276Z,7.97
2022-10-20T17:46:56.265Z,7.78
2022-10-20T17:49:30.892Z,7.45
2022-10-20T17:52:05.506Z,6.85
2022-10-20T17:54:33.272Z,8.07
2022-10-20T17:57:10.773Z,7.00
2022-10-20T17:59:47.491Z,7.18
2022-10-20T18:02:30.440Z,9.80
2022-10-20T18:04:58.246Z,8.10
2022-10-20T18:07:28.645Z,7.97
2022-10-20T18:10:02.576Z,7.00
2022-10-20T18:12:30.600Z,9.32
2022-10-20T18:15:01.137Z,9.00
2022-10-20T18:17:35.642Z,8.32
2022-10-20T18:20:04.676Z,9.20
2022-10-20T18:22:34.697Z,10.30
2022-10-20T18:25:09.519Z,11.10
2022-10-20T18:27:37.414Z,10.90
2022-10-20T18:30:08.635Z,10.35
2022-10-20T18:32:44.710Z,11.80
2022-10-20T18:35:12.380Z,12.50
2022-10-20T18:37:40.305Z,14.50
2022-10-20T18:40:15.923Z,13.05
2022-10-20T18:42:46.072Z,14.55
2022-10-20T18:45:28.348Z,13.90
2022-10-20T18:48:16.668Z,12.70
2022-10-20T18:51:04.389Z,13.38
2022-10-20T18:53:33.582Z,12.65
2022-10-20T18:56:15.477Z,13.23
2022-10-20T18:58:48.702Z,13.32
2022-10-20T19:01:26.289Z,13.88
2022-10-20T19:03:56.670Z,13.73
2022-10-20T19:06:36.571Z,13.38
2022-10-20T19:09:14.949Z,13.63
2022-10-20T19:14:17.830Z,14.65
2022-10-20T19:16:49.691Z,14.20
2022-10-20T19:19:26.383Z,15.20
2022-10-20T19:21:53.994Z,15.63
2022-10-20T19:24:23.790Z,15.02
2022-10-20T19:27:25.659Z,15.55
2022-10-20T19:29:48.915Z,16.85
2022-10-20T19:32:23.364Z,16.75
2022-10-20T19:34:51.623Z,16.05
2022-10-20T19:37:19.044Z,15.88
2022-10-20T19:39:53.411Z,16.80
2022-10-20T19:42:25.447Z,16.20
2022-10-20T19:44:55.845Z,16.75
2022-10-20T19:47:30.283Z,17.10
2022-10-20T19:50:04.713Z,16.83
2022-10-20T19:52:41.675Z,16.92
2022-10-20T19:55:09.365Z,17.75
2022-10-20T19:57:41.586Z,17.90
2022-10-20T20:00:16.229Z,16.90
2022-10-20T20:02:43.768Z,16.27
2022-10-20T20:05:11.459Z,17.75
2022-10-20T20:07:46.588Z,17.90
2022-10-20T20:10:20.823Z,17.42
2022-10-20T20:12:48.377Z,17.38
2022-10-20T20:15:23.000Z,17.50
2022-10-20T20:17:54.241Z,16.77
2022-10-20T20:20:22.244Z,17.55
2022-10-20T20:22:56.851Z,18.00
2022-10-20T20:25:26.841Z,19.33
2022-10-20T20:27:55.163Z,19.58
2022-10-20T20:30:29.776Z,19.08
2022-10-20T20:33:00.240Z,18.73
2022-10-20T20:35:30.317Z,17.58
2022-10-20T20:38:04.153Z,17.90
2022-10-20T20:40:34.334Z,17.83
2022-10-20T20:43:01.822Z,17.02
2022-10-20T20:45:35.985Z,17.75
2022-10-20T20:48:10.237Z,17.98
2022-10-20T20:51:01.763Z,18.58
2022-10-20T20:53:30.705Z,17.80
2022-10-20T20:56:13.783Z,18.38
2022-10-20T20:58:42.446Z,17.55
2022-10-20T21:01:33.753Z,18.88
2022-10-20T21:04:04.290Z,19.08
2022-10-20T21:06:49.325Z,17.75
2022-10-20T21:09:23.788Z,19.23
2022-10-20T21:11:51.168Z,20.05
2022-10-20T21:14:18.901Z,19.92
2022-10-20T21:16:53.771Z,20.00
2022-10-20T21:19:22.028Z,20.42
2022-10-20T21:21:50.889Z,20.50
2022-10-20T21:24:28.377Z,20.02
2022-10-20T21:26:55.912Z,20.63
2022-10-20T21:29:23.501Z,21.58
2022-10-20T21:32:02.160Z,22.35
2022-10-20T21:34:29.731Z,21.23
2022-10-20T21:36:57.160Z,22.58
2022-10-20T21:41:58.472Z,23.65
2022-10-20T21:44:25.872Z,22.83
2022-10-20T21:47:00.156Z,22.60
2022-10-20T21:49:34.426Z,21.58
2022-10-20T21:52:15.180Z,22.05
2022-10-20T21:54:44.983Z,20.95
2022-10-20T21:57:12.516Z,20.63
2022-10-20T21:59:47.141Z,22.35
2022-10-20T22:02:19.194Z,21.65
2022-10-20T22:04:46.651Z,22.67
2022-10-20T22:07:20.164Z,21.60
2022-10-20T22:09:47.690Z,22.17
2022-10-20T22:12:15.087Z,22.52
2022-10-20T22:14:49.192Z,21.65
2022-10-20T22:17:16.747Z,22.05
2022-10-20T22:19:44.151Z,21.63
2022-10-20T22:22:18.181Z,22.40
2022-10-20T22:24:48.048Z,22.83
2022-10-20T22:27:25.285Z,23.23
2022-10-20T22:30:09.085Z,22.98
2022-10-20T22:32:36.778Z,22.95
2022-10-20T22:35:04.667Z,22.80
2022-10-20T22:37:38.077Z,23.17
2022-10-20T22:40:09.070Z,22.90
2022-10-20T22:42:36.731Z,21.92
2022-10-20T22:45:11.067Z,21.90
2022-10-20T22:47:38.422Z,22.60
2022-10-20T22:50:20.091Z,23.40
2022-10-20T22:52:54.159Z,23.08
2022-10-20T22:55:28.057Z,23.88
2022-10-20T23:00:26.247Z,23.58
2022-10-20T23:02:59.921Z,22.08
2022-10-20T23:05:27.359Z,21.30
2022-10-20T23:07:54.741Z,22.30
2022-10-20T23:10:28.895Z,20.70
2022-10-20T23:12:58.770Z,21.25
2022-10-20T23:15:27.394Z,21.38
2022-10-20T23:18:00.769Z,21.60
2022-10-20T23:20:31.175Z,22.77
2022-10-20T23:22:58.571Z,21.13
2022-10-20T23:25:32.835Z,23.13
2022-10-20T23:28:02.801Z,24.13
2022-10-20T23:30:30.186Z,24.55
2022-10-20T23:33:03.820Z,23.90
2022-10-20T23:35:31.659Z,23.40
2022-10-20T23:38:01.544Z,22.52
2022-10-20T23:40:35.375Z,23.75
2022-10-20T23:43:02.832Z,23.92
2022-10-20T23:45:32.894Z,24.95
2022-10-20T23:48:09.363Z,24.50
2022-10-20T23:50:45.417Z,24.30
2022-10-20T23:53:19.302Z,23.85
2022-10-20T23:55:46.790Z,22.63
2022-10-20T23:58:27.717Z,20.13
